Time;durP1;ratioP1;P1;durP2;ratioP2;P2;SDS_P1;SDS_P2;PMS_P1;PMS_P2;Temp;Humidity;BMP_temperature;BMP_pressure;BME280_temperature;BME280_humidity;BME280_pressure;Samples;Min_cycle;Max_cycle;Signal;HPM_P1;HPM_P2
2023/11/21 00:01:24;;;;;;;;;;;;;;;-7.87;67.91;99200.97;4963702;28;20642;-75
2023/11/21 00:03:50;;;;;;;;;;;;;;;-7.90;67.77;99188.84;4984872;28;19925;-74
2023/11/21 00:06:17;;;;;;;;;;;;;;;-7.90;68.02;99185.34;4991021;28;20443;-75
2023/11/21 00:08:43;;;;;;;;;;;;;;;-7.93;67.69;99193.66;4981836;28;20045;-75
2023/11/21 00:11:10;;;;;;;;;;;;;;;-7.97;67.82;99191.34;4987817;28;19982;-75
2023/11/21 00:13:36;;;;;;;;;;;;;;;-7.97;67.93;99185.19;4999559;28;19940;-75
2023/11/21 00:16:02;;;;;;;;;;;;;;;-8.04;68.10;99198.34;5021337;28;19948;-74
2023/11/21 00:18:27;;;;;;;;;;;;;;;-8.02;68.31;99192.84;5000149;28;20313;-74
2023/11/21 00:20:53;;;;;;;;;;;;;;;-8.05;67.96;99188.69;4999874;28;20305;-74
2023/11/21 00:23:21;;;;;;;;;;;;;;;-8.05;68.22;99187.88;4997153;28;20303;-80
2023/11/21 00:25:46;;;;;;;;;;;;;;;-8.04;68.08;99187.72;4991240;28;20032;-74
2023/11/21 00:28:12;;;;;;;;;;;;;;;-8.03;67.81;99191.19;4996213;28;20373;-73
2023/11/21 00:30:38;;;;;;;;;;;;;;;-8.03;68.21;99186.72;4994437;28;19929;-79
2023/11/21 00:33:04;;;;;;;;;;;;;;;-8.01;67.88;99197.16;5001751;28;19930;-79
2023/11/21 00:35:30;;;;;;;;;;;;;;;-7.99;67.65;99193.34;4993835;28;20517;-78
2023/11/21 00:37:56;;;;;;;;;;;;;;;-7.98;67.52;99194.16;4998884;28;19932;-79
2023/11/21 00:40:24;;;;;;;;;;;;;;;-7.98;67.58;99191.50;4996189;28;20315;-79
2023/11/21 00:42:50;;;;;;;;;;;;;;;-7.98;67.75;99196.81;4980712;28;20396;-79
2023/11/21 00:45:16;;;;;;;;;;;;;;;-7.96;67.75;99186.88;4984314;28;19987;-79
2023/11/21 00:47:42;;;;;;;;;;;;;;;-7.94;67.63;99184.88;5001207;28;19925;-80
2023/11/21 00:50:09;;;;;;;;;;;;;;;-8.02;67.54;99167.16;4961516;28;20026;-81
2023/11/21 00:52:35;;;;;;;;;;;;;;;-7.95;67.38;99180.56;4999140;28;19952;-79
2023/11/21 00:55:02;;;;;;;;;;;;;;;-7.95;67.33;99183.22;4980921;28;20244;-79
2023/11/21 00:57:30;;;;;;;;;;;;;;;-7.95;67.28;99179.72;4995169;28;19929;-74
2023/11/21 00:59:56;;;;;;;;;;;;;;;-7.94;67.46;99186.69;4994704;28;19925;-74
2023/11/21 01:02:22;;;;;;;;;;;;;;;-7.97;67.35;99185.19;4989491;28;19932;-75
2023/11/21 01:04:48;;;;;;;;;;;;;;;-7.99;67.54;99190.69;4953014;28;19937;-74
2023/11/21 01:07:14;;;;;;;;;;;;;;;-8.01;67.34;99191.84;4996533;28;19925;-74
2023/11/21 01:09:40;;;;;;;;;;;;;;;-8.04;67.57;99184.22;4988701;28;19987;-74
2023/11/21 01:12:06;;;;;;;;;;;;;;;-8.06;67.85;99186.22;4996597;28;19990;-74
2023/11/21 01:14:35;;;;;;;;;;;;;;;-8.12;67.79;99179.75;4998276;28;19927;-80
2023/11/21 01:17:01;;;;;;;;;;;;;;;-8.09;68.08;99182.06;4969905;28;19925;-79
2023/11/21 01:19:28;;;;;;;;;;;;;;;-8.12;67.83;99179.75;5002439;28;19926;-80
2023/11/21 01:21:54;;;;;;;;;;;;;;;-8.14;67.91;99179.91;4999373;28;20014;-80
2023/11/21 01:24:20;;;;;;;;;;;;;;;-8.13;68.25;99176.25;5003570;28;19925;-79
2023/11/21 01:26:46;;;;;;;;;;;;;;;-8.13;67.92;99172.81;4982138;28;19925;-79
2023/11/21 01:29:12;;;;;;;;;;;;;;;-8.16;68.13;99179.25;4991656;28;19933;-74
2023/11/21 01:31:39;;;;;;;;;;;;;;;-8.13;68.19;99175.47;4974127;28;19971;-79
2023/11/21 01:34:05;;;;;;;;;;;;;;;-8.13;68.36;99184.22;4980625;28;20257;-79
2023/11/21 01:36:32;;;;;;;;;;;;;;;-8.13;68.32;99186.06;5003388;28;19926;-78
2023/11/21 01:38:59;;;;;;;;;;;;;;;-8.12;68.16;99177.94;4995071;28;19997;-79
2023/11/21 01:41:26;;;;;;;;;;;;;;;-8.08;68.06;99177.59;4978796;28;19926;-79
2023/11/21 01:43:53;;;;;;;;;;;;;;;-8.09;68.16;99176.75;4997550;28;20310;-81
2023/11/21 01:46:20;;;;;;;;;;;;;;;-8.10;68.21;99182.25;4980295;28;19952;-79
2023/11/21 01:48:48;;;;;;;;;;;;;;;-8.18;67.82;99173.31;4999541;28;19926;-79
2023/11/21 01:51:15;;;;;;;;;;;;;;;-8.08;68.07;99186.38;5001905;28;19925;-79
2023/11/21 01:53:41;;;;;;;;;;;;;;;-8.04;67.83;99189.53;4998725;28;19932;-78
2023/11/21 01:56:10;;;;;;;;;;;;;;;-8.06;67.81;99188.88;5001280;28;19931;-79
2023/11/21 01:58:36;;;;;;;;;;;;;;;-8.09;67.71;99190.03;4982010;28;19965;-79
2023/11/21 02:01:02;;;;;;;;;;;;;;;-8.12;67.87;99190.38;4993417;28;19925;-80
2023/11/21 02:03:28;;;;;;;;;;;;;;;-8.10;67.90;99190.22;5002520;28;20071;-74
2023/11/21 02:05:55;;;;;;;;;;;;;;;-8.13;67.57;99186.06;4995309;28;20411;-74
2023/11/21 02:08:21;;;;;;;;;;;;;;;-8.17;67.47;99195.38;4991713;28;19971;-74
2023/11/21 02:10:48;;;;;;;;;;;;;;;-8.16;67.57;99176.59;4976416;28;19929;-74
2023/11/21 02:13:13;;;;;;;;;;;;;;;-8.16;67.25;99175.78;4996628;28;19944;-73
2023/11/21 02:15:39;;;;;;;;;;;;;;;-8.18;67.37;99175.13;4997568;28;19948;-74
2023/11/21 02:18:06;;;;;;;;;;;;;;;-8.39;67.22;99165.88;4960448;28;19953;-73
2023/11/21 02:20:34;;;;;;;;;;;;;;;-8.26;67.10;99187.41;4983568;28;20041;-74
2023/11/21 02:23:02;;;;;;;;;;;;;;;-8.26;67.43;99183.94;4978521;28;19933;-79
2023/11/21 02:25:29;;;;;;;;;;;;;;;-8.21;67.56;99194.88;4998903;28;19982;-78
2023/11/21 02:27:55;;;;;;;;;;;;;;;-8.19;67.34;99184.09;4971836;28;20048;-78
2023/11/21 02:30:21;;;;;;;;;;;;;;;-8.21;66.89;99175.47;4981039;28;19932;-79
2023/11/21 02:32:48;;;;;;;;;;;;;;;-8.22;66.58;99192.38;5001120;28;19932;-79
2023/11/21 02:35:14;;;;;;;;;;;;;;;-8.26;66.73;99184.75;5001531;28;20016;-79
2023/11/21 02:37:40;;;;;;;;;;;;;;;-8.22;66.74;99187.06;5013575;28;19954;-79
2023/11/21 02:40:10;;;;;;;;;;;;;;;-8.21;66.71;99183.41;5001944;28;20345;-78
2023/11/21 02:42:36;;;;;;;;;;;;;;;-8.18;66.72;99183.09;4997989;28;19926;-80
2023/11/21 02:45:01;;;;;;;;;;;;;;;-8.18;65.75;99181.25;5000329;28;19947;-79
2023/11/21 02:47:28;;;;;;;;;;;;;;;-8.23;65.57;99180.94;5001014;28;19926;-79
2023/11/21 02:49:54;;;;;;;;;;;;;;;-8.24;65.77;99187.25;4997284;28;20452;-79
2023/11/21 02:52:20;;;;;;;;;;;;;;;-8.20;65.95;99190.38;4994359;28;19925;-79
2023/11/21 02:54:46;;;;;;;;;;;;;;;-8.20;65.45;99190.38;4956471;28;19937;-79
2023/11/21 02:57:13;;;;;;;;;;;;;;;-8.28;65.57;99192.06;4968903;28;20285;-79
2023/11/21 02:59:39;;;;;;;;;;;;;;;-8.31;65.33;99205.66;5000734;28;19929;-79
2023/11/21 03:02:08;;;;;;;;;;;;;;;-8.26;65.28;99202.50;5008737;28;20356;-78
2023/11/21 03:04:34;;;;;;;;;;;;;;;-8.23;65.05;99214.59;4968176;28;19967;-79
2023/11/21 03:07:00;;;;;;;;;;;;;;;-8.23;65.12;99212.78;5003367;28;19962;-79
2023/11/21 03:09:27;;;;;;;;;;;;;;;-8.23;65.35;99215.44;5000728;28;20352;-79
2023/11/21 03:11:53;;;;;;;;;;;;;;;-8.21;65.10;99218.75;4978946;28;19929;-78
2023/11/21 03:14:21;;;;;;;;;;;;;;;-8.19;65.00;99223.91;4979732;28;20341;-78
2023/11/21 03:16:47;;;;;;;;;;;;;;;-8.18;65.10;99228.22;4999005;28;20048;-74
2023/11/21 03:19:14;;;;;;;;;;;;;;;-8.10;64.75;99222.88;4980336;28;20523;-74
2023/11/21 03:21:40;;;;;;;;;;;;;;;-8.04;64.63;99211.59;4981498;28;19948;-74
2023/11/21 03:24:07;;;;;;;;;;;;;;;-8.07;64.42;99224.38;4997759;28;20395;-74
2023/11/21 03:26:33;;;;;;;;;;;;;;;-8.07;64.40;99221.72;4987008;28;19936;-74
2023/11/21 03:28:59;;;;;;;;;;;;;;;-8.04;64.32;99224.03;5000842;28;19929;-74
2023/11/21 03:31:26;;;;;;;;;;;;;;;-8.03;64.29;99228.34;5000775;28;20402;-75
2023/11/21 03:33:53;;;;;;;;;;;;;;;-8.05;64.31;99236.47;5000382;28;19973;-74
2023/11/21 03:36:19;;;;;;;;;;;;;;;-8.16;64.39;99221.72;4997437;28;19936;-78
2023/11/21 03:38:45;;;;;;;;;;;;;;;-8.18;64.48;99242.28;5019983;28;19925;-79
2023/11/21 03:41:11;;;;;;;;;;;;;;;-8.22;64.53;99232.16;5016212;28;19925;-78
2023/11/21 03:43:36;;;;;;;;;;;;;;;-8.26;64.53;99232.50;5005017;28;19978;-80
2023/11/21 03:46:02;;;;;;;;;;;;;;;-8.24;64.62;99247.44;5000813;28;20312;-77
2023/11/21 03:48:29;;;;;;;;;;;;;;;-8.22;64.59;99246.28;5021397;28;19935;-80
2023/11/21 03:50:55;;;;;;;;;;;;;;;-8.23;64.88;99238.47;5003202;28;20333;-79
2023/11/21 03:53:21;;;;;;;;;;;;;;;-8.26;64.80;99237.00;5007509;28;20336;-78
2023/11/21 03:55:47;;;;;;;;;;;;;;;-8.28;65.14;99238.97;5003890;28;19968;-79
2023/11/21 03:58:13;;;;;;;;;;;;;;;-8.31;65.17;99241.94;4998628;28;20005;-79
2023/11/21 04:00:39;;;;;;;;;;;;;;;-8.32;65.35;99248.25;5001483;28;20354;-79
2023/11/21 04:03:05;;;;;;;;;;;;;;;-8.31;65.33;99250.75;5012723;28;19925;-79
2023/11/21 04:05:32;;;;;;;;;;;;;;;-8.34;65.61;99251.09;4995705;28;20211;-78
2023/11/21 04:07:58;;;;;;;;;;;;;;;-8.35;65.70;99253.91;4979845;28;20042;-74
2023/11/21 04:10:23;;;;;;;;;;;;;;;-8.31;65.76;99247.25;4999415;28;20419;-74
2023/11/21 04:12:49;;;;;;;;;;;;;;;-8.33;65.98;99241.28;5002649;28;19929;-74
2023/11/21 04:15:15;;;;;;;;;;;;;;;-8.38;65.83;99244.44;4999519;28;19936;-75
2023/11/21 04:17:41;;;;;;;;;;;;;;;-8.41;66.25;99242.97;4999723;28;19924;-74
2023/11/21 04:20:09;;;;;;;;;;;;;;;-8.40;66.04;99252.56;4995997;28;19994;-74
2023/11/21 04:22:40;;;;;;;;;;;;;;;-8.37;66.03;99242.63;4995470;28;19978;-74
2023/11/21 04:25:07;;;;;;;;;;;;;;;-8.36;65.91;99241.63;5000224;28;19933;-74
2023/11/21 04:27:33;;;;;;;;;;;;;;;-8.35;66.17;99248.59;4999556;28;19929;-74
2023/11/21 04:29:58;;;;;;;;;;;;;;;-8.36;66.21;99244.28;4998711;28;20003;-74
2023/11/21 04:32:24;;;;;;;;;;;;;;;-8.38;66.19;99246.28;4981777;28;19936;-76
2023/11/21 04:34:50;;;;;;;;;;;;;;;-8.42;66.53;99233.34;5003656;28;20001;-74
2023/11/21 04:37:16;;;;;;;;;;;;;;;-8.45;66.18;99249.56;4999042;28;20050;-74
2023/11/21 04:39:43;;;;;;;;;;;;;;;-8.45;66.34;99251.41;5014778;28;20319;-74
2023/11/21 04:42:09;;;;;;;;;;;;;;;-8.44;66.57;99258.38;5013881;28;19953;-74
2023/11/21 04:44:35;;;;;;;;;;;;;;;-8.43;66.95;99262.69;4979396;28;20007;-73
2023/11/21 04:47:01;;;;;;;;;;;;;;;-8.39;66.54;99258.69;4981397;28;20030;-78
2023/11/21 04:49:27;;;;;;;;;;;;;;;-8.36;66.71;99262.84;5003026;28;19925;-78
2023/11/21 04:51:53;;;;;;;;;;;;;;;-8.30;66.57;99264.84;4997197;28;19948;-78
2023/11/21 04:54:19;;;;;;;;;;;;;;;-8.29;66.46;99269.13;5010362;28;19928;-78
2023/11/21 04:56:46;;;;;;;;;;;;;;;-8.31;66.59;99266.66;5018682;28;19998;-74
2023/11/21 04:59:12;;;;;;;;;;;;;;;-8.30;66.26;99259.53;5002615;28;20331;-74
2023/11/21 05:01:38;;;;;;;;;;;;;;;-8.32;66.67;99269.47;5013474;28;19961;-74
2023/11/21 05:04:05;;;;;;;;;;;;;;;-8.36;66.60;99263.66;4999181;28;20029;-74
2023/11/21 05:06:32;;;;;;;;;;;;;;;-8.40;66.98;99273.78;5002488;28;20474;-75
2023/11/21 05:08:58;;;;;;;;;;;;;;;-8.44;66.93;99272.44;4979743;28;19926;-74
2023/11/21 05:11:24;;;;;;;;;;;;;;;-8.45;66.84;99278.75;4997190;28;19932;-74
2023/11/21 05:13:52;;;;;;;;;;;;;;;-8.44;66.93;99283.06;5012420;28;19982;-74
2023/11/21 05:16:19;;;;;;;;;;;;;;;-8.45;66.95;99284.03;4996553;28;19931;-74
2023/11/21 05:18:45;;;;;;;;;;;;;;;-8.45;67.18;99288.53;4999259;28;20255;-74
2023/11/21 05:21:14;;;;;;;;;;;;;;;-8.42;67.13;99285.56;4991903;28;20023;-74
2023/11/21 05:23:40;;;;;;;;;;;;;;;-8.38;67.14;99278.09;4998960;28;20395;-79
2023/11/21 05:26:07;;;;;;;;;;;;;;;-8.40;67.24;99278.25;4998538;28;20345;-78
2023/11/21 05:28:33;;;;;;;;;;;;;;;-8.41;66.96;99281.91;4999150;28;19932;-75
2023/11/21 05:31:01;;;;;;;;;;;;;;;-8.45;67.35;99289.34;4993500;28;19925;-76
2023/11/21 05:33:27;;;;;;;;;;;;;;;-8.42;67.26;99282.91;4998806;28;20050;-75
2023/11/21 05:35:53;;;;;;;;;;;;;;;-8.38;67.25;99276.25;5008308;28;20783;-76
2023/11/21 05:38:19;;;;;;;;;;;;;;;-8.39;67.49;99271.97;5005716;28;19967;-78
2023/11/21 05:40:44;;;;;;;;;;;;;;;-8.38;67.77;99275.44;4982578;28;19925;-76
2023/11/21 05:43:11;;;;;;;;;;;;;;;-8.37;67.60;99272.63;5004141;28;19925;-76
2023/11/21 05:45:37;;;;;;;;;;;;;;;-8.34;67.90;99268.81;4997791;28;19932;-76
2023/11/21 05:48:06;;;;;;;;;;;;;;;-8.37;68.04;99282.41;5017267;28;20020;-75
2023/11/21 05:50:32;;;;;;;;;;;;;;;-8.50;68.63;99269.69;5009214;28;19935;-76
2023/11/21 05:53:00;;;;;;;;;;;;;;;-8.35;68.85;99281.25;5016215;28;19924;-76
2023/11/21 05:55:26;;;;;;;;;;;;;;;-8.38;68.79;99288.72;5013919;28;19925;-76
2023/11/21 05:57:52;;;;;;;;;;;;;;;-8.40;69.33;99297.66;5001786;28;19925;-76
2023/11/21 06:00:21;;;;;;;;;;;;;;;-8.39;69.63;99293.16;5022035;28;20310;-77
2023/11/21 06:02:50;;;;;;;;;;;;;;;-8.34;69.78;99303.28;4988172;28;19987;-77
2023/11/21 06:05:18;;;;;;;;;;;;;;;-8.30;69.61;99301.97;5002001;28;19925;-76
2023/11/21 06:07:44;;;;;;;;;;;;;;;-8.33;69.74;99304.94;4999492;28;20041;-77
2023/11/21 06:10:12;;;;;;;;;;;;;;;-8.35;69.67;99304.28;5002737;28;20063;-77
2023/11/21 06:12:39;;;;;;;;;;;;;;;-8.37;69.67;99312.41;5009162;28;19926;-77
2023/11/21 06:15:08;;;;;;;;;;;;;;;-8.34;70.09;99314.75;4984014;28;20345;-76
2023/11/21 06:17:36;;;;;;;;;;;;;;;-8.33;69.80;99313.75;5004229;28;20043;-76
2023/11/21 06:20:08;;;;;;;;;;;;;;;-8.34;70.05;99305.94;5012914;28;19925;-77
2023/11/21 06:22:36;;;;;;;;;;;;;;;-8.36;69.99;99318.56;5015704;28;19925;-76
2023/11/21 06:25:03;;;;;;;;;;;;;;;-8.37;70.35;99322.19;4993652;28;19925;-77
2023/11/21 06:27:29;;;;;;;;;;;;;;;-8.38;70.50;99320.53;4985015;28;19960;-77
2023/11/21 06:29:55;;;;;;;;;;;;;;;-8.36;70.85;99326.50;5013052;28;19929;-77
2023/11/21 06:32:22;;;;;;;;;;;;;;;-8.32;70.56;99326.03;5070759;28;20376;-77
2023/11/21 06:34:49;;;;;;;;;;;;;;;-8.28;70.44;99319.38;5018547;28;19931;-76
2023/11/21 06:37:15;;;;;;;;;;;;;;;-8.15;70.48;99320.72;5013971;28;19969;-77
2023/11/21 06:39:42;;;;;;;;;;;;;;;-8.10;70.67;99310.44;5003548;28;19932;-78
2023/11/21 06:42:08;;;;;;;;;;;;;;;-8.04;70.25;99317.75;5002446;28;19925;-77
2023/11/21 06:44:35;;;;;;;;;;;;;;;-7.95;70.37;99325.72;4982152;28;19974;-77
2023/11/21 06:47:01;;;;;;;;;;;;;;;-7.91;69.64;99317.25;4998949;28;20386;-77
2023/11/21 06:49:27;;;;;;;;;;;;;;;-7.86;69.46;99320.22;4998057;28;20387;-76
2023/11/21 06:51:55;;;;;;;;;;;;;;;-7.83;69.36;99322.53;4998274;28;19925;-73
2023/11/21 06:54:21;;;;;;;;;;;;;;;-7.83;68.77;99319.06;4978933;28;19965;-74
2023/11/21 06:56:49;;;;;;;;;;;;;;;-7.86;69.20;99325.53;4962859;28;20446;-76
2023/11/21 06:59:15;;;;;;;;;;;;;;;-7.95;68.67;99293.84;4996794;28;20015;-76
2023/11/21 07:01:41;;;;;;;;;;;;;;;-7.87;68.23;99304.47;4994014;28;21028;-77
2023/11/21 07:04:08;;;;;;;;;;;;;;;-7.87;68.25;99315.91;4980736;28;20008;-77
2023/11/21 07:06:34;;;;;;;;;;;;;;;-7.90;68.28;99310.94;4994980;28;20465;-77
2023/11/21 07:09:01;;;;;;;;;;;;;;;-7.86;68.44;99322.06;5006114;28;19983;-76
2023/11/21 07:11:27;;;;;;;;;;;;;;;-7.84;67.61;99325.38;4979622;28;20316;-77
2023/11/21 07:13:54;;;;;;;;;;;;;;;-7.83;68.11;99333.16;5007252;28;20001;-77
2023/11/21 07:16:20;;;;;;;;;;;;;;;-7.80;68.32;99329.34;4983626;28;19935;-77
2023/11/21 07:18:46;;;;;;;;;;;;;;;-7.80;67.83;99329.34;4996280;28;20388;-76
2023/11/21 07:21:12;;;;;;;;;;;;;;;-7.83;67.95;99311.09;4991079;28;19936;-77
2023/11/21 07:23:38;;;;;;;;;;;;;;;-7.76;67.60;99327.19;4977123;28;20001;-77
2023/11/21 07:26:08;;;;;;;;;;;;;;;-7.76;67.34;99330.66;4993974;28;19924;-77
2023/11/21 07:28:35;;;;;;;;;;;;;;;-7.70;67.56;99335.34;5002503;28;19979;-77
2023/11/21 07:31:03;;;;;;;;;;;;;;;-7.64;66.98;99327.69;4991194;28;19932;-77
2023/11/21 07:33:29;;;;;;;;;;;;;;;-7.59;66.69;99328.84;5011309;28;20014;-77
2023/11/21 07:35:55;;;;;;;;;;;;;;;-7.51;66.43;99327.16;4998306;28;19925;-77
2023/11/21 07:38:20;;;;;;;;;;;;;;;-7.46;66.04;99335.47;4995129;28;20268;-78
2023/11/21 07:40:46;;;;;;;;;;;;;;;-7.45;65.48;99332.63;5001058;28;19932;-77
2023/11/21 07:43:12;;;;;;;;;;;;;;;-7.43;65.58;99329.81;4994404;28;20401;-73
2023/11/21 07:45:38;;;;;;;;;;;;;;;-7.34;65.90;99335.94;4991398;28;21772;-77
2023/11/21 07:48:06;;;;;;;;;;;;;;;-7.33;65.40;99319.84;5007902;28;20011;-77
2023/11/21 07:50:33;;;;;;;;;;;;;;;-7.34;64.90;99334.09;4992957;28;19925;-77
2023/11/21 07:52:59;;;;;;;;;;;;;;;-7.32;64.58;99331.28;4987692;28;19967;-76
2023/11/21 07:55:25;;;;;;;;;;;;;;;-7.24;64.15;99322.44;4995604;28;19960;-77
2023/11/21 07:57:51;;;;;;;;;;;;;;;-7.23;63.68;99311.66;5005368;28;19925;-76
2023/11/21 08:00:17;;;;;;;;;;;;;;;-7.30;63.66;99311.50;5004896;28;20218;-75
2023/11/21 08:02:45;;;;;;;;;;;;;;;-7.36;63.91;99314.84;5005803;28;19930;-76
2023/11/21 08:05:13;;;;;;;;;;;;;;;-7.32;63.20;99315.34;5005256;28;20396;-76
2023/11/21 08:07:38;;;;;;;;;;;;;;;-7.29;63.60;99317.66;5001441;28;20397;-76
2023/11/21 08:10:05;;;;;;;;;;;;;;;-7.28;63.19;99320.16;5012763;28;19923;-76
2023/11/21 08:12:31;;;;;;;;;;;;;;;-7.28;63.02;99311.31;5004670;28;19983;-76
2023/11/21 08:14:57;;;;;;;;;;;;;;;-7.32;62.84;99323.31;5001692;28;20372;-76
2023/11/21 08:17:23;;;;;;;;;;;;;;;-7.30;63.29;99319.50;5003889;28;19963;-75
2023/11/21 08:19:51;;;;;;;;;;;;;;;-7.28;63.40;99321.97;4998510;28;20385;-76
2023/11/21 08:22:18;;;;;;;;;;;;;;;-7.29;63.54;99320.31;4997273;28;19936;-72
2023/11/21 08:24:46;;;;;;;;;;;;;;;-7.30;62.99;99326.63;4998372;28;19956;-72
2023/11/21 08:27:15;;;;;;;;;;;;;;;-7.36;62.77;99327.31;4998227;28;19978;-72
2023/11/21 08:29:41;;;;;;;;;;;;;;;-7.35;62.96;99321.00;5002170;28;19925;-72
2023/11/21 08:32:07;;;;;;;;;;;;;;;-7.24;62.91;99309.16;4989810;28;19936;-72
2023/11/21 08:34:33;;;;;;;;;;;;;;;-7.28;62.34;99317.50;4999146;28;20000;-73
2023/11/21 08:37:00;;;;;;;;;;;;;;;-7.26;62.41;99314.63;5004317;28;19936;-72
2023/11/21 08:39:27;;;;;;;;;;;;;;;-7.27;62.08;99313.81;5000647;28;20032;-72
2023/11/21 08:41:53;;;;;;;;;;;;;;;-7.24;61.76;99307.34;5012173;28;19978;-72
2023/11/21 08:44:19;;;;;;;;;;;;;;;-7.29;61.27;99313.19;5012486;28;19929;-72
2023/11/21 08:46:46;;;;;;;;;;;;;;;-7.33;61.18;99309.22;5008796;28;19925;-72
2023/11/21 08:49:14;;;;;;;;;;;;;;;-7.35;61.20;99315.69;5003157;28;20012;-72
2023/11/21 08:51:40;;;;;;;;;;;;;;;-7.34;61.10;99307.53;5004763;28;20295;-73
2023/11/21 08:54:08;;;;;;;;;;;;;;;-7.32;61.25;99310.88;5000700;28;20266;-72
2023/11/21 08:56:35;;;;;;;;;;;;;;;-7.27;61.18;99323.63;5008996;28;19929;-72
2023/11/21 08:59:02;;;;;;;;;;;;;;;-7.30;60.99;99308.03;5008682;28;19925;-72
2023/11/21 09:01:28;;;;;;;;;;;;;;;-7.20;60.55;99329.06;5066242;28;19923;-72
2023/11/21 09:03:54;;;;;;;;;;;;;;;-7.09;60.51;99320.75;5035787;28;20328;-72
2023/11/21 09:06:20;;;;;;;;;;;;;;;-7.02;60.05;99329.72;5007959;28;20386;-76
2023/11/21 09:08:45;;;;;;;;;;;;;;;-7.01;60.00;99330.53;5006595;28;20437;-76
2023/11/21 09:11:14;;;;;;;;;;;;;;;-7.05;60.30;99335.34;5026718;28;19923;-76
2023/11/21 09:13:41;;;;;;;;;;;;;;;-7.07;60.29;99337.34;5007841;28;19925;-76
2023/11/21 09:16:07;;;;;;;;;;;;;;;-7.04;60.05;99336.19;5013273;28;20028;-76
2023/11/21 09:18:34;;;;;;;;;;;;;;;-7.09;60.41;99335.88;5010862;28;19925;-72
2023/11/21 09:21:00;;;;;;;;;;;;;;;-7.07;60.71;99337.34;5019272;28;19924;-73
2023/11/21 09:23:26;;;;;;;;;;;;;;;-7.05;60.63;99343.31;5008179;28;19925;-76
2023/11/21 09:25:56;;;;;;;;;;;;;;;-7.08;61.03;99341.00;5002120;28;20031;-76
2023/11/21 09:28:22;;;;;;;;;;;;;;;-7.10;60.85;99342.16;4996240;28;19964;-76
2023/11/21 09:30:50;;;;;;;;;;;;;;;-7.08;61.31;99337.53;4999895;28;19965;-77
2023/11/21 09:33:16;;;;;;;;;;;;;;;-7.13;61.06;99338.03;5004827;28;19978;-76
2023/11/21 09:35:43;;;;;;;;;;;;;;;-7.14;61.50;99341.69;5003930;28;19925;-76
2023/11/21 09:38:10;;;;;;;;;;;;;;;-7.16;61.26;99344.50;5001684;28;19925;-72
2023/11/21 09:40:37;;;;;;;;;;;;;;;-7.21;61.33;99343.38;5000715;28;19932;-72
2023/11/21 09:43:07;;;;;;;;;;;;;;;-7.20;61.53;99353.84;5000684;28;20344;-72
2023/11/21 09:45:35;;;;;;;;;;;;;;;-7.18;61.27;99346.53;5016042;28;19928;-73
2023/11/21 09:48:02;;;;;;;;;;;;;;;-7.19;61.73;99354.66;5016268;28;19985;-76
2023/11/21 09:50:28;;;;;;;;;;;;;;;-7.26;62.03;99350.03;4999713;28;19930;-76
2023/11/21 09:52:57;;;;;;;;;;;;;;;-7.31;62.37;99359.50;5004942;28;19925;-76
2023/11/21 09:55:26;;;;;;;;;;;;;;;-7.31;62.27;99354.19;5012359;28;19935;-76
2023/11/21 09:57:52;;;;;;;;;;;;;;;-7.32;62.32;99345.41;5001308;28;19948;-75
2023/11/21 10:00:20;;;;;;;;;;;;;;;-7.35;62.39;99353.69;4996800;28;19925;-75
2023/11/21 10:02:49;;;;;;;;;;;;;;;-7.32;62.98;99360.50;5002305;28;19968;-72
2023/11/21 10:05:17;;;;;;;;;;;;;;;-7.30;63.26;99358.50;5000140;28;19932;-75
2023/11/21 10:07:44;;;;;;;;;;;;;;;-7.30;62.88;99359.34;5000724;28;19980;-75
2023/11/21 10:10:10;;;;;;;;;;;;;;;-7.29;62.70;99371.63;4998044;28;20059;-76
2023/11/21 10:12:38;;;;;;;;;;;;;;;-7.26;63.03;99358.00;5007468;28;20099;-73
2023/11/21 10:15:07;;;;;;;;;;;;;;;-7.31;62.76;99360.34;5014563;28;19925;-72
2023/11/21 10:17:42;;;;;;;;;;;;;;;-7.34;63.01;99359.84;5013287;28;19936;-72
2023/11/21 10:20:11;;;;;;;;;;;;;;;-7.33;63.02;99362.34;4981143;28;20084;-72
2023/11/21 10:22:41;;;;;;;;;;;;;;;-7.34;63.28;99365.97;4972294;28;19948;-72
2023/11/21 10:25:08;;;;;;;;;;;;;;;-7.34;63.97;99358.00;4987852;28;20058;-72
2023/11/21 10:27:34;;;;;;;;;;;;;;;-7.33;64.13;99358.84;5015628;28;19929;-72
2023/11/21 10:30:00;;;;;;;;;;;;;;;-7.33;64.58;99361.50;4999795;28;20304;-72
2023/11/21 10:32:28;;;;;;;;;;;;;;;-7.31;64.54;99359.50;5000476;28;20339;-72
2023/11/21 10:34:57;;;;;;;;;;;;;;;-7.36;64.65;99346.72;5000817;28;19971;-72
2023/11/21 10:37:23;;;;;;;;;;;;;;;-7.39;64.53;99351.56;5015964;28;19933;-72
2023/11/21 10:39:51;;;;;;;;;;;;;;;-7.38;64.47;99354.03;5012211;28;19972;-72
2023/11/21 10:42:20;;;;;;;;;;;;;;;-7.37;64.58;99357.53;4993542;28;19929;-77
2023/11/21 10:44:46;;;;;;;;;;;;;;;-7.38;64.52;99354.03;4991739;28;20310;-72
2023/11/21 10:47:15;;;;;;;;;;;;;;;-7.40;64.57;99348.06;4965274;28;19999;-76
2023/11/21 10:49:42;;;;;;;;;;;;;;;-7.43;64.57;99348.41;4995524;28;19929;-75
2023/11/21 10:52:13;;;;;;;;;;;;;;;-7.44;64.80;99360.03;5013324;28;19925;-76
2023/11/21 10:54:41;;;;;;;;;;;;;;;-7.45;65.11;99359.19;5010085;28;19926;-76
2023/11/21 10:57:08;;;;;;;;;;;;;;;-7.41;65.25;99357.03;5009721;28;19934;-75
2023/11/21 10:59:34;;;;;;;;;;;;;;;-7.44;65.29;99355.53;5005506;28;20375;-75
2023/11/21 11:02:03;;;;;;;;;;;;;;;-7.40;64.94;99361.34;5021861;28;19971;-75
2023/11/21 11:04:29;;;;;;;;;;;;;;;-7.37;64.79;99349.56;5000607;28;19932;-76
2023/11/21 11:06:58;;;;;;;;;;;;;;;-7.43;63.84;99345.75;5007704;28;19925;-72
2023/11/21 11:09:36;;;;;;;;;;;;;;;-7.50;63.99;99353.56;4996228;28;19942;-71
2023/11/21 11:12:02;;;;;;;;;;;;;;;-7.50;63.71;99366.84;5019997;28;20394;-75
2023/11/21 11:14:30;;;;;;;;;;;;;;;-7.49;63.99;99365.00;5028992;28;20431;-75
2023/11/21 11:16:56;;;;;;;;;;;;;;;-7.46;64.18;99364.69;4989232;28;20020;-76
2023/11/21 11:19:22;;;;;;;;;;;;;;;-7.41;63.94;99370.31;4987282;28;19937;-71
2023/11/21 11:21:54;;;;;;;;;;;;;;;-7.36;63.84;99369.81;5008476;28;20015;-76
2023/11/21 11:24:36;;;;;;;;;;;;;;;-7.29;63.87;99365.47;5000249;28;19936;-75
2023/11/21 11:27:08;;;;;;;;;;;;;;;-7.21;63.90;99369.94;4994645;28;19926;-75
2023/11/21 11:29:43;;;;;;;;;;;;;;;-7.23;63.90;99372.78;4998957;28;19933;-75
2023/11/21 11:32:16;;;;;;;;;;;;;;;-7.29;63.43;99378.75;5001910;28;19971;-76
2023/11/21 11:34:46;;;;;;;;;;;;;;;-7.37;63.21;99378.78;5002927;28;19925;-76
2023/11/21 11:37:12;;;;;;;;;;;;;;;-7.45;63.29;99376.97;5000105;28;19940;-75
2023/11/21 11:39:41;;;;;;;;;;;;;;;-7.47;63.52;99382.44;5015076;28;19939;-72
2023/11/21 11:42:08;;;;;;;;;;;;;;;-7.46;63.91;99389.41;5024167;28;19925;-72
2023/11/21 11:44:51;;;;;;;;;;;;;;;-7.41;63.73;99386.25;5001740;28;19929;-71
2023/11/21 11:47:21;;;;;;;;;;;;;;;-7.38;64.04;99380.59;5002904;28;19926;-71
2023/11/21 11:50:13;;;;;;;;;;;;;;;-7.38;64.12;99377.94;5008378;28;19928;-71
2023/11/21 11:52:41;;;;;;;;;;;;;;;-7.39;63.43;99376.28;4983685;28;19926;-71
2023/11/21 11:55:09;;;;;;;;;;;;;;;-7.42;63.34;99387.25;5014416;28;19956;-76
2023/11/21 11:57:38;;;;;;;;;;;;;;;-7.42;63.33;99390.72;4989156;28;19931;-76
2023/11/21 12:00:12;;;;;;;;;;;;;;;-7.41;63.64;99389.75;5002541;28;19925;-76
2023/11/21 12:02:40;;;;;;;;;;;;;;;-7.38;63.63;99396.53;4969515;28;19926;-75
2023/11/21 12:05:10;;;;;;;;;;;;;;;-7.35;64.04;99390.88;5016743;28;20861;-75
2023/11/21 12:07:54;;;;;;;;;;;;;;;-7.38;64.03;99393.06;5010624;28;20436;-76
2023/11/21 12:10:22;;;;;;;;;;;;;;;-7.38;64.54;99390.41;4981427;28;20408;-75
2023/11/21 12:12:49;;;;;;;;;;;;;;;-7.32;64.53;99400.34;5006829;28;20447;-76
2023/11/21 12:15:17;;;;;;;;;;;;;;;-7.27;64.29;99400.66;4997521;28;20101;-75
2023/11/21 12:17:44;;;;;;;;;;;;;;;-7.31;64.28;99394.88;4981229;28;19929;-75
2023/11/21 12:20:19;;;;;;;;;;;;;;;-7.33;63.95;99398.69;5010113;28;19925;-76
2023/11/21 12:22:48;;;;;;;;;;;;;;;-7.40;64.10;99403.84;5018036;27;20035;-77
2023/11/21 12:25:16;;;;;;;;;;;;;;;-7.41;64.60;99408.34;5005224;28;19933;-76
2023/11/21 12:27:43;;;;;;;;;;;;;;;-7.41;64.68;99410.16;5016485;28;19932;-76
2023/11/21 12:30:13;;;;;;;;;;;;;;;-7.40;64.88;99401.19;5015916;28;20012;-75
2023/11/21 12:32:43;;;;;;;;;;;;;;;-7.42;65.06;99400.53;5010588;28;19947;-76
2023/11/21 12:35:10;;;;;;;;;;;;;;;-7.42;65.20;99404.00;5018354;28;20023;-77
2023/11/21 12:37:36;;;;;;;;;;;;;;;-7.40;64.88;99411.81;5002175;28;20065;-76
2023/11/21 12:40:03;;;;;;;;;;;;;;;-7.35;64.45;99400.69;4990328;28;19989;-76
2023/11/21 12:42:30;;;;;;;;;;;;;;;-7.40;64.02;99403.84;4998227;28;19936;-76
2023/11/21 12:45:19;;;;;;;;;;;;;;;-7.43;63.98;99405.00;5012731;28;19925;-76
2023/11/21 12:47:54;;;;;;;;;;;;;;;-7.45;63.81;99406.19;5010712;28;19932;-72